sensor_id;sensor_type;location;lat;lon;timestamp;P1;durP1;ratioP1;P2;durP2;ratioP2
6785;SDS011;3430;51.192;6.048;2023-09-07T00:00:29;3.70;;;2.93;;
6785;SDS011;3430;51.192;6.048;2023-09-07T00:02:55;3.30;;;3.00;;
6785;SDS011;3430;51.192;6.048;2023-09-07T00:05:20;3.63;;;3.00;;
6785;SDS011;3430;51.192;6.048;2023-09-07T00:07:45;3.83;;;3.10;;
6785;SDS011;3430;51.192;6.048;2023-09-07T00:10:11;3.67;;;3.27;;
6785;SDS011;3430;51.192;6.048;2023-09-07T00:12:37;5.30;;;3.50;;
6785;SDS011;3430;51.192;6.048;2023-09-07T00:15:04;3.03;;;2.73;;
6785;SDS011;3430;51.192;6.048;2023-09-07T00:17:31;5.13;;;3.57;;
6785;SDS011;3430;51.192;6.048;2023-09-07T00:19:57;3.80;;;3.10;;
6785;SDS011;3430;51.192;6.048;2023-09-07T00:22:23;3.70;;;3.13;;
6785;SDS011;3430;51.192;6.048;2023-09-07T00:24:50;3.43;;;3.10;;
6785;SDS011;3430;51.192;6.048;2023-09-07T00:27:16;3.70;;;3.03;;
6785;SDS011;3430;51.192;6.048;2023-09-07T00:29:41;3.00;;;2.73;;
6785;SDS011;3430;51.192;6.048;2023-09-07T00:32:10;3.50;;;3.17;;
6785;SDS011;3430;51.192;6.048;2023-09-07T00:34:38;3.77;;;3.27;;
6785;SDS011;3430;51.192;6.048;2023-09-07T00:37:12;3.13;;;2.83;;
6785;SDS011;3430;51.192;6.048;2023-09-07T00:39:44;3.63;;;3.20;;
6785;SDS011;3430;51.192;6.048;2023-09-07T00:42:12;3.50;;;3.17;;
6785;SDS011;3430;51.192;6.048;2023-09-07T00:47:27;3.10;;;2.80;;
6785;SDS011;3430;51.192;6.048;2023-09-07T00:49:59;3.10;;;2.80;;
6785;SDS011;3430;51.192;6.048;2023-09-07T00:52:25;3.80;;;3.40;;
6785;SDS011;3430;51.192;6.048;2023-09-07T00:55:05;3.80;;;3.40;;
6785;SDS011;3430;51.192;6.048;2023-09-07T00:57:49;3.37;;;3.00;;
6785;SDS011;3430;51.192;6.048;2023-09-07T01:00:17;3.83;;;3.40;;
6785;SDS011;3430;51.192;6.048;2023-09-07T01:02:52;4.77;;;3.37;;
6785;SDS011;3430;51.192;6.048;2023-09-07T01:05:17;4.03;;;3.40;;
6785;SDS011;3430;51.192;6.048;2023-09-07T01:10:27;3.43;;;3.10;;
6785;SDS011;3430;51.192;6.048;2023-09-07T01:12:52;4.53;;;3.07;;
6785;SDS011;3430;51.192;6.048;2023-09-07T01:15:21;4.10;;;3.37;;
6785;SDS011;3430;51.192;6.048;2023-09-07T01:17:51;3.60;;;3.30;;
6785;SDS011;3430;51.192;6.048;2023-09-07T01:20:17;3.37;;;3.07;;
6785;SDS011;3430;51.192;6.048;2023-09-07T01:22:46;4.33;;;3.13;;
6785;SDS011;3430;51.192;6.048;2023-09-07T01:25:15;3.20;;;2.90;;
6785;SDS011;3430;51.192;6.048;2023-09-07T01:27:41;4.10;;;3.17;;
6785;SDS011;3430;51.192;6.048;2023-09-07T01:30:09;3.80;;;3.33;;
6785;SDS011;3430;51.192;6.048;2023-09-07T01:32:38;3.77;;;2.67;;
6785;SDS011;3430;51.192;6.048;2023-09-07T01:35:07;3.30;;;3.00;;
6785;SDS011;3430;51.192;6.048;2023-09-07T01:37:39;3.73;;;3.10;;
6785;SDS011;3430;51.192;6.048;2023-09-07T01:40:08;3.60;;;3.23;;
6785;SDS011;3430;51.192;6.048;2023-09-07T01:42:34;4.43;;;3.13;;
6785;SDS011;3430;51.192;6.048;2023-09-07T01:45:03;4.23;;;3.27;;
6785;SDS011;3430;51.192;6.048;2023-09-07T01:47:31;3.43;;;3.10;;
6785;SDS011;3430;51.192;6.048;2023-09-07T01:49:57;3.63;;;3.00;;
6785;SDS011;3430;51.192;6.048;2023-09-07T01:52:22;3.87;;;3.57;;
6785;SDS011;3430;51.192;6.048;2023-09-07T01:54:47;3.57;;;3.20;;
6785;SDS011;3430;51.192;6.048;2023-09-07T01:57:13;3.73;;;3.33;;
6785;SDS011;3430;51.192;6.048;2023-09-07T01:59:38;3.20;;;2.87;;
6785;SDS011;3430;51.192;6.048;2023-09-07T02:02:07;3.87;;;3.40;;
6785;SDS011;3430;51.192;6.048;2023-09-07T02:04:35;3.90;;;3.50;;
6785;SDS011;3430;51.192;6.048;2023-09-07T02:07:01;6.00;;;3.70;;
6785;SDS011;3430;51.192;6.048;2023-09-07T02:09:26;4.00;;;3.40;;
6785;SDS011;3430;51.192;6.048;2023-09-07T02:11:52;4.03;;;3.33;;
6785;SDS011;3430;51.192;6.048;2023-09-07T02:14:17;3.37;;;3.07;;
6785;SDS011;3430;51.192;6.048;2023-09-07T02:16:43;3.50;;;3.20;;
6785;SDS011;3430;51.192;6.048;2023-09-07T02:19:09;4.03;;;3.47;;
6785;SDS011;3430;51.192;6.048;2023-09-07T02:21:35;4.13;;;2.97;;
6785;SDS011;3430;51.192;6.048;2023-09-07T02:24:00;4.47;;;3.17;;
6785;SDS011;3430;51.192;6.048;2023-09-07T02:26:28;3.47;;;3.00;;
6785;SDS011;3430;51.192;6.048;2023-09-07T02:28:54;3.70;;;2.93;;
6785;SDS011;3430;51.192;6.048;2023-09-07T02:31:21;3.30;;;3.00;;
6785;SDS011;3430;51.192;6.048;2023-09-07T02:33:49;3.83;;;3.50;;
6785;SDS011;3430;51.192;6.048;2023-09-07T02:36:14;3.63;;;3.27;;
6785;SDS011;3430;51.192;6.048;2023-09-07T02:38:40;3.40;;;3.10;;
6785;SDS011;3430;51.192;6.048;2023-09-07T02:41:14;4.57;;;3.27;;
6785;SDS011;3430;51.192;6.048;2023-09-07T02:43:39;3.93;;;3.37;;
6785;SDS011;3430;51.192;6.048;2023-09-07T02:46:05;5.27;;;3.17;;
6785;SDS011;3430;51.192;6.048;2023-09-07T02:48:31;4.17;;;3.50;;
6785;SDS011;3430;51.192;6.048;2023-09-07T02:50:57;3.60;;;3.17;;
6785;SDS011;3430;51.192;6.048;2023-09-07T02:53:23;5.30;;;3.33;;
6785;SDS011;3430;51.192;6.048;2023-09-07T02:55:49;3.17;;;2.87;;
6785;SDS011;3430;51.192;6.048;2023-09-07T02:58:14;3.83;;;3.10;;
6785;SDS011;3430;51.192;6.048;2023-09-07T03:00:43;3.50;;;3.20;;
6785;SDS011;3430;51.192;6.048;2023-09-07T03:03:09;3.13;;;2.83;;
6785;SDS011;3430;51.192;6.048;2023-09-07T03:05:44;3.33;;;2.90;;
6785;SDS011;3430;51.192;6.048;2023-09-07T03:08:10;7.07;;;3.20;;
6785;SDS011;3430;51.192;6.048;2023-09-07T03:10:36;3.67;;;3.27;;
6785;SDS011;3430;51.192;6.048;2023-09-07T03:13:06;4.13;;;3.30;;
6785;SDS011;3430;51.192;6.048;2023-09-07T03:15:31;3.90;;;3.30;;
6785;SDS011;3430;51.192;6.048;2023-09-07T03:17:57;3.67;;;3.23;;
6785;SDS011;3430;51.192;6.048;2023-09-07T03:20:23;4.40;;;3.27;;
6785;SDS011;3430;51.192;6.048;2023-09-07T03:22:48;6.80;;;3.57;;
6785;SDS011;3430;51.192;6.048;2023-09-07T03:25:14;3.50;;;3.20;;
6785;SDS011;3430;51.192;6.048;2023-09-07T03:27:40;4.20;;;3.77;;
6785;SDS011;3430;51.192;6.048;2023-09-07T03:30:13;3.57;;;3.07;;
6785;SDS011;3430;51.192;6.048;2023-09-07T03:32:38;4.30;;;3.40;;
6785;SDS011;3430;51.192;6.048;2023-09-07T03:35:03;3.93;;;3.53;;
6785;SDS011;3430;51.192;6.048;2023-09-07T03:37:34;3.27;;;2.97;;
6785;SDS011;3430;51.192;6.048;2023-09-07T03:39:59;3.30;;;3.00;;
6785;SDS011;3430;51.192;6.048;2023-09-07T03:42:24;4.00;;;3.20;;
6785;SDS011;3430;51.192;6.048;2023-09-07T03:44:50;3.30;;;3.00;;
6785;SDS011;3430;51.192;6.048;2023-09-07T03:47:15;3.63;;;3.33;;
6785;SDS011;3430;51.192;6.048;2023-09-07T03:49:41;4.47;;;3.57;;
6785;SDS011;3430;51.192;6.048;2023-09-07T03:52:06;4.23;;;3.83;;
6785;SDS011;3430;51.192;6.048;2023-09-07T03:54:32;4.30;;;3.00;;
6785;SDS011;3430;51.192;6.048;2023-09-07T03:56:57;3.67;;;3.03;;
6785;SDS011;3430;51.192;6.048;2023-09-07T03:59:29;4.20;;;3.40;;
6785;SDS011;3430;51.192;6.048;2023-09-07T04:01:57;3.80;;;3.40;;
6785;SDS011;3430;51.192;6.048;2023-09-07T04:04:23;3.53;;;3.20;;
6785;SDS011;3430;51.192;6.048;2023-09-07T04:06:48;3.43;;;3.13;;
6785;SDS011;3430;51.192;6.048;2023-09-07T04:09:17;3.43;;;3.13;;
6785;SDS011;3430;51.192;6.048;2023-09-07T04:11:42;4.50;;;3.40;;
6785;SDS011;3430;51.192;6.048;2023-09-07T04:14:11;4.67;;;3.33;;
6785;SDS011;3430;51.192;6.048;2023-09-07T04:16:39;7.40;;;3.17;;
6785;SDS011;3430;51.192;6.048;2023-09-07T04:19:04;3.67;;;2.90;;
6785;SDS011;3430;51.192;6.048;2023-09-07T04:21:30;5.37;;;3.27;;
6785;SDS011;3430;51.192;6.048;2023-09-07T04:24:05;4.50;;;3.30;;
6785;SDS011;3430;51.192;6.048;2023-09-07T04:26:30;4.40;;;3.43;;
6785;SDS011;3430;51.192;6.048;2023-09-07T04:28:56;4.73;;;3.23;;
6785;SDS011;3430;51.192;6.048;2023-09-07T04:31:21;4.70;;;3.73;;
6785;SDS011;3430;51.192;6.048;2023-09-07T04:33:53;3.87;;;3.40;;
6785;SDS011;3430;51.192;6.048;2023-09-07T04:36:30;4.20;;;3.37;;
6785;SDS011;3430;51.192;6.048;2023-09-07T04:38:56;4.07;;;3.60;;
6785;SDS011;3430;51.192;6.048;2023-09-07T04:41:22;3.87;;;3.00;;
6785;SDS011;3430;51.192;6.048;2023-09-07T04:43:48;4.53;;;3.70;;
6785;SDS011;3430;51.192;6.048;2023-09-07T04:46:14;4.20;;;3.37;;
6785;SDS011;3430;51.192;6.048;2023-09-07T04:48:45;5.30;;;3.33;;
6785;SDS011;3430;51.192;6.048;2023-09-07T04:51:13;4.43;;;3.37;;
6785;SDS011;3430;51.192;6.048;2023-09-07T04:53:50;3.40;;;3.10;;
6785;SDS011;3430;51.192;6.048;2023-09-07T04:56:15;4.10;;;2.87;;
6785;SDS011;3430;51.192;6.048;2023-09-07T04:58:41;3.20;;;2.90;;
6785;SDS011;3430;51.192;6.048;2023-09-07T05:01:20;4.53;;;3.70;;
6785;SDS011;3430;51.192;6.048;2023-09-07T05:03:46;4.03;;;2.97;;
6785;SDS011;3430;51.192;6.048;2023-09-07T05:06:11;4.57;;;3.53;;
6785;SDS011;3430;51.192;6.048;2023-09-07T05:08:45;4.47;;;3.13;;
6785;SDS011;3430;51.192;6.048;2023-09-07T05:11:10;4.70;;;3.70;;
6785;SDS011;3430;51.192;6.048;2023-09-07T05:13:56;4.20;;;3.37;;
6785;SDS011;3430;51.192;6.048;2023-09-07T05:16:21;3.40;;;3.10;;
6785;SDS011;3430;51.192;6.048;2023-09-07T05:18:49;3.23;;;2.93;;
6785;SDS011;3430;51.192;6.048;2023-09-07T05:23:56;3.60;;;3.30;;
6785;SDS011;3430;51.192;6.048;2023-09-07T05:26:22;3.57;;;2.93;;
6785;SDS011;3430;51.192;6.048;2023-09-07T05:28:50;3.40;;;3.10;;
6785;SDS011;3430;51.192;6.048;2023-09-07T05:31:19;4.30;;;3.70;;
6785;SDS011;3430;51.192;6.048;2023-09-07T05:33:44;4.53;;;3.43;;
6785;SDS011;3430;51.192;6.048;2023-09-07T05:36:10;3.67;;;3.30;;
6785;SDS011;3430;51.192;6.048;2023-09-07T05:38:35;3.80;;;3.50;;
6785;SDS011;3430;51.192;6.048;2023-09-07T05:41:03;4.03;;;3.43;;
6785;SDS011;3430;51.192;6.048;2023-09-07T05:43:32;4.87;;;3.30;;
6785;SDS011;3430;51.192;6.048;2023-09-07T05:45:58;4.83;;;3.30;;
6785;SDS011;3430;51.192;6.048;2023-09-07T05:48:23;4.67;;;3.50;;
6785;SDS011;3430;51.192;6.048;2023-09-07T05:50:52;4.20;;;3.30;;
6785;SDS011;3430;51.192;6.048;2023-09-07T05:53:24;5.47;;;3.80;;
6785;SDS011;3430;51.192;6.048;2023-09-07T05:55:52;3.30;;;3.00;;
6785;SDS011;3430;51.192;6.048;2023-09-07T05:58:19;3.47;;;3.17;;
6785;SDS011;3430;51.192;6.048;2023-09-07T06:00:48;4.13;;;3.40;;
6785;SDS011;3430;51.192;6.048;2023-09-07T06:03:13;5.13;;;3.77;;
6785;SDS011;3430;51.192;6.048;2023-09-07T06:05:39;4.53;;;3.73;;
6785;SDS011;3430;51.192;6.048;2023-09-07T06:08:07;7.80;;;3.47;;
6785;SDS011;3430;51.192;6.048;2023-09-07T06:10:33;5.10;;;3.40;;
6785;SDS011;3430;51.192;6.048;2023-09-07T06:12:59;6.17;;;3.40;;
6785;SDS011;3430;51.192;6.048;2023-09-07T06:15:36;6.70;;;3.83;;
6785;SDS011;3430;51.192;6.048;2023-09-07T06:18:02;4.63;;;3.20;;
6785;SDS011;3430;51.192;6.048;2023-09-07T06:20:32;6.50;;;3.87;;
6785;SDS011;3430;51.192;6.048;2023-09-07T06:22:59;5.57;;;3.93;;
6785;SDS011;3430;51.192;6.048;2023-09-07T06:25:25;8.27;;;3.70;;
6785;SDS011;3430;51.192;6.048;2023-09-07T06:27:58;4.17;;;3.50;;
6785;SDS011;3430;51.192;6.048;2023-09-07T06:30:23;9.43;;;3.23;;
6785;SDS011;3430;51.192;6.048;2023-09-07T06:32:49;6.33;;;3.80;;
6785;SDS011;3430;51.192;6.048;2023-09-07T06:35:16;9.97;;;3.60;;
6785;SDS011;3430;51.192;6.048;2023-09-07T06:37:43;7.80;;;3.73;;
6785;SDS011;3430;51.192;6.048;2023-09-07T06:40:21;10.20;;;3.77;;
6785;SDS011;3430;51.192;6.048;2023-09-07T06:42:47;5.60;;;3.40;;
6785;SDS011;3430;51.192;6.048;2023-09-07T06:45:12;8.60;;;3.50;;
6785;SDS011;3430;51.192;6.048;2023-09-07T06:47:39;5.67;;;4.20;;
6785;SDS011;3430;51.192;6.048;2023-09-07T06:50:08;9.10;;;3.90;;
6785;SDS011;3430;51.192;6.048;2023-09-07T06:52:33;4.43;;;3.60;;
6785;SDS011;3430;51.192;6.048;2023-09-07T06:54:59;9.13;;;3.53;;
6785;SDS011;3430;51.192;6.048;2023-09-07T06:57:24;4.83;;;3.27;;
6785;SDS011;3430;51.192;6.048;2023-09-07T06:59:50;8.03;;;3.60;;
6785;SDS011;3430;51.192;6.048;2023-09-07T07:02:18;4.73;;;3.63;;
6785;SDS011;3430;51.192;6.048;2023-09-07T07:04:46;8.30;;;3.80;;
6785;SDS011;3430;51.192;6.048;2023-09-07T07:07:12;12.70;;;3.97;;
6785;SDS011;3430;51.192;6.048;2023-09-07T07:09:37;7.27;;;3.60;;
6785;SDS011;3430;51.192;6.048;2023-09-07T07:12:03;5.30;;;3.13;;
6785;SDS011;3430;51.192;6.048;2023-09-07T07:14:28;7.27;;;3.07;;
6785;SDS011;3430;51.192;6.048;2023-09-07T07:16:54;6.37;;;3.60;;
6785;SDS011;3430;51.192;6.048;2023-09-07T07:19:19;5.23;;;3.10;;
6785;SDS011;3430;51.192;6.048;2023-09-07T07:21:45;4.87;;;3.60;;
6785;SDS011;3430;51.192;6.048;2023-09-07T07:24:11;3.80;;;3.40;;
6785;SDS011;3430;51.192;6.048;2023-09-07T07:26:36;4.73;;;3.30;;
6785;SDS011;3430;51.192;6.048;2023-09-07T07:29:02;3.37;;;2.90;;
6785;SDS011;3430;51.192;6.048;2023-09-07T07:31:28;6.10;;;3.60;;
6785;SDS011;3430;51.192;6.048;2023-09-07T07:33:54;6.63;;;3.60;;
6785;SDS011;3430;51.192;6.048;2023-09-07T07:36:20;3.93;;;3.23;;
6785;SDS011;3430;51.192;6.048;2023-09-07T07:38:46;6.67;;;3.40;;
6785;SDS011;3430;51.192;6.048;2023-09-07T07:41:11;4.80;;;3.37;;
6785;SDS011;3430;51.192;6.048;2023-09-07T07:43:37;9.33;;;4.20;;
6785;SDS011;3430;51.192;6.048;2023-09-07T07:46:02;7.07;;;3.67;;
6785;SDS011;3430;51.192;6.048;2023-09-07T07:48:31;5.50;;;3.23;;
6785;SDS011;3430;51.192;6.048;2023-09-07T07:51:01;4.03;;;2.80;;
6785;SDS011;3430;51.192;6.048;2023-09-07T07:53:28;4.13;;;3.53;;
6785;SDS011;3430;51.192;6.048;2023-09-07T07:55:53;5.20;;;3.13;;
6785;SDS011;3430;51.192;6.048;2023-09-07T07:58:21;6.03;;;2.93;;
6785;SDS011;3430;51.192;6.048;2023-09-07T08:00:46;3.90;;;2.90;;
6785;SDS011;3430;51.192;6.048;2023-09-07T08:03:13;5.63;;;3.50;;
6785;SDS011;3430;51.192;6.048;2023-09-07T08:05:38;6.87;;;3.63;;
6785;SDS011;3430;51.192;6.048;2023-09-07T08:08:05;4.63;;;3.50;;
6785;SDS011;3430;51.192;6.048;2023-09-07T08:10:33;3.20;;;2.87;;
6785;SDS011;3430;51.192;6.048;2023-09-07T08:12:58;3.50;;;3.10;;
6785;SDS011;3430;51.192;6.048;2023-09-07T08:15:24;5.40;;;3.67;;
6785;SDS011;3430;51.192;6.048;2023-09-07T08:17:50;3.93;;;3.03;;
6785;SDS011;3430;51.192;6.048;2023-09-07T08:20:15;6.80;;;3.60;;
6785;SDS011;3430;51.192;6.048;2023-09-07T08:22:41;4.83;;;3.40;;
6785;SDS011;3430;51.192;6.048;2023-09-07T08:25:08;5.30;;;3.33;;
6785;SDS011;3430;51.192;6.048;2023-09-07T08:27:36;3.73;;;3.37;;
6785;SDS011;3430;51.192;6.048;2023-09-07T08:30:02;4.03;;;3.40;;
6785;SDS011;3430;51.192;6.048;2023-09-07T08:32:31;7.43;;;3.13;;
6785;SDS011;3430;51.192;6.048;2023-09-07T08:34:56;6.40;;;3.27;;
6785;SDS011;3430;51.192;6.048;2023-09-07T08:37:26;4.67;;;3.60;;
6785;SDS011;3430;51.192;6.048;2023-09-07T08:39:53;5.90;;;3.10;;
6785;SDS011;3430;51.192;6.048;2023-09-07T08:42:27;4.03;;;2.93;;
6785;SDS011;3430;51.192;6.048;2023-09-07T08:44:53;5.40;;;3.17;;
6785;SDS011;3430;51.192;6.048;2023-09-07T08:47:23;6.23;;;3.40;;
6785;SDS011;3430;51.192;6.048;2023-09-07T08:49:56;11.23;;;3.77;;
6785;SDS011;3430;51.192;6.048;2023-09-07T08:52:23;5.03;;;3.30;;
6785;SDS011;3430;51.192;6.048;2023-09-07T08:54:55;3.53;;;3.20;;
6785;SDS011;3430;51.192;6.048;2023-09-07T08:57:29;4.27;;;3.23;;
6785;SDS011;3430;51.192;6.048;2023-09-07T08:59:55;4.77;;;3.57;;
6785;SDS011;3430;51.192;6.048;2023-09-07T09:02:20;4.40;;;3.10;;
6785;SDS011;3430;51.192;6.048;2023-09-07T09:04:49;3.13;;;2.83;;
6785;SDS011;3430;51.192;6.048;2023-09-07T09:07:23;7.63;;;3.27;;
6785;SDS011;3430;51.192;6.048;2023-09-07T09:09:51;6.23;;;3.07;;
6785;SDS011;3430;51.192;6.048;2023-09-07T09:12:22;5.93;;;3.70;;
6785;SDS011;3430;51.192;6.048;2023-09-07T09:15:14;4.17;;;3.27;;
6785;SDS011;3430;51.192;6.048;2023-09-07T09:17:42;5.10;;;3.57;;
6785;SDS011;3430;51.192;6.048;2023-09-07T09:20:23;4.33;;;3.20;;
6785;SDS011;3430;51.192;6.048;2023-09-07T09:22:52;8.37;;;3.60;;
6785;SDS011;3430;51.192;6.048;2023-09-07T09:25:18;3.17;;;2.87;;
6785;SDS011;3430;51.192;6.048;2023-09-07T09:27:43;6.40;;;3.97;;
6785;SDS011;3430;51.192;6.048;2023-09-07T09:30:10;5.03;;;3.23;;
6785;SDS011;3430;51.192;6.048;2023-09-07T09:32:42;5.37;;;3.43;;
6785;SDS011;3430;51.192;6.048;2023-09-07T09:35:08;5.07;;;3.27;;
6785;SDS011;3430;51.192;6.048;2023-09-07T09:37:34;5.67;;;3.50;;
6785;SDS011;3430;51.192;6.048;2023-09-07T09:40:00;4.00;;;3.40;;
6785;SDS011;3430;51.192;6.048;2023-09-07T09:42:27;5.57;;;3.13;;
6785;SDS011;3430;51.192;6.048;2023-09-07T09:44:53;4.10;;;3.10;;
6785;SDS011;3430;51.192;6.048;2023-09-07T09:47:20;4.90;;;3.73;;
6785;SDS011;3430;51.192;6.048;2023-09-07T09:49:57;8.13;;;3.80;;
6785;SDS011;3430;51.192;6.048;2023-09-07T09:52:24;5.13;;;3.97;;
6785;SDS011;3430;51.192;6.048;2023-09-07T09:54:50;3.97;;;3.57;;
6785;SDS011;3430;51.192;6.048;2023-09-07T09:57:16;4.30;;;3.33;;
6785;SDS011;3430;51.192;6.048;2023-09-07T09:59:42;4.00;;;3.60;;
6785;SDS011;3430;51.192;6.048;2023-09-07T10:02:12;4.50;;;3.87;;
6785;SDS011;3430;51.192;6.048;2023-09-07T10:04:37;3.83;;;3.10;;
6785;SDS011;3430;51.192;6.048;2023-09-07T10:07:03;4.57;;;4.10;;
6785;SDS011;3430;51.192;6.048;2023-09-07T10:09:33;5.27;;;3.90;;
6785;SDS011;3430;51.192;6.048;2023-09-07T10:12:02;3.93;;;3.23;;
6785;SDS011;3430;51.192;6.048;2023-09-07T10:14:39;7.40;;;4.13;;
6785;SDS011;3430;51.192;6.048;2023-09-07T10:17:06;3.70;;;3.40;;
6785;SDS011;3430;51.192;6.048;2023-09-07T10:19:31;5.83;;;4.30;;
6785;SDS011;3430;51.192;6.048;2023-09-07T10:21:58;4.20;;;3.77;;
6785;SDS011;3430;51.192;6.048;2023-09-07T10:24:31;5.73;;;4.53;;
6785;SDS011;3430;51.192;6.048;2023-09-07T10:27:04;7.97;;;4.20;;
6785;SDS011;3430;51.192;6.048;2023-09-07T10:29:43;4.13;;;3.53;;
6785;SDS011;3430;51.192;6.048;2023-09-07T10:32:09;5.47;;;3.90;;
6785;SDS011;3430;51.192;6.048;2023-09-07T10:34:38;4.73;;;3.93;;
6785;SDS011;3430;51.192;6.048;2023-09-07T10:37:04;7.13;;;4.50;;
6785;SDS011;3430;51.192;6.048;2023-09-07T10:39:33;5.43;;;3.80;;
6785;SDS011;3430;51.192;6.048;2023-09-07T10:41:59;3.80;;;3.40;;
6785;SDS011;3430;51.192;6.048;2023-09-07T10:44:25;4.60;;;3.73;;
6785;SDS011;3430;51.192;6.048;2023-09-07T10:46:51;4.13;;;3.60;;
6785;SDS011;3430;51.192;6.048;2023-09-07T10:49:17;6.47;;;3.83;;
6785;SDS011;3430;51.192;6.048;2023-09-07T10:51:46;9.10;;;4.90;;
6785;SDS011;3430;51.192;6.048;2023-09-07T10:54:18;5.10;;;3.90;;
6785;SDS011;3430;51.192;6.048;2023-09-07T10:56:48;7.53;;;4.00;;
6785;SDS011;3430;51.192;6.048;2023-09-07T10:59:14;4.87;;;4.37;;
6785;SDS011;3430;51.192;6.048;2023-09-07T11:01:39;4.20;;;3.60;;
6785;SDS011;3430;51.192;6.048;2023-09-07T11:04:07;5.13;;;4.30;;
6785;SDS011;3430;51.192;6.048;2023-09-07T11:06:39;5.43;;;4.07;;
6785;SDS011;3430;51.192;6.048;2023-09-07T11:09:09;5.17;;;4.67;;
6785;SDS011;3430;51.192;6.048;2023-09-07T11:11:35;5.80;;;4.07;;
6785;SDS011;3430;51.192;6.048;2023-09-07T11:14:04;5.23;;;4.67;;
6785;SDS011;3430;51.192;6.048;2023-09-07T11:16:30;5.40;;;4.47;;
6785;SDS011;3430;51.192;6.048;2023-09-07T11:18:56;6.07;;;4.60;;
6785;SDS011;3430;51.192;6.048;2023-09-07T11:21:23;5.27;;;4.53;;
6785;SDS011;3430;51.192;6.048;2023-09-07T11:23:50;5.03;;;4.43;;
6785;SDS011;3430;51.192;6.048;2023-09-07T11:26:15;4.87;;;4.37;;
6785;SDS011;3430;51.192;6.048;2023-09-07T11:28:47;6.40;;;5.27;;
6785;SDS011;3430;51.192;6.048;2023-09-07T11:31:18;5.37;;;4.87;;
6785;SDS011;3430;51.192;6.048;2023-09-07T11:33:43;8.70;;;4.73;;
6785;SDS011;3430;51.192;6.048;2023-09-07T11:36:11;6.70;;;4.13;;
6785;SDS011;3430;51.192;6.048;2023-09-07T11:38:43;6.50;;;5.30;;
6785;SDS011;3430;51.192;6.048;2023-09-07T11:41:10;6.00;;;5.40;;
6785;SDS011;3430;51.192;6.048;2023-09-07T11:43:35;4.20;;;3.80;;
6785;SDS011;3430;51.192;6.048;2023-09-07T11:46:02;6.20;;;5.60;;
6785;SDS011;3430;51.192;6.048;2023-09-07T11:48:29;8.23;;;5.27;;
6785;SDS011;3430;51.192;6.048;2023-09-07T11:50:54;5.50;;;5.00;;
6785;SDS011;3430;51.192;6.048;2023-09-07T11:53:24;6.03;;;5.27;;
6785;SDS011;3430;51.192;6.048;2023-09-07T11:55:49;6.57;;;5.50;;
6785;SDS011;3430;51.192;6.048;2023-09-07T11:58:17;7.13;;;5.47;;
6785;SDS011;3430;51.192;6.048;2023-09-07T12:00:43;8.20;;;5.23;;
6785;SDS011;3430;51.192;6.048;2023-09-07T12:03:08;7.50;;;5.83;;
6785;SDS011;3430;51.192;6.048;2023-09-07T12:05:34;7.83;;;5.57;;
6785;SDS011;3430;51.192;6.048;2023-09-07T12:08:00;5.87;;;5.27;;
6785;SDS011;3430;51.192;6.048;2023-09-07T12:10:26;5.07;;;4.40;;
6785;SDS011;3430;51.192;6.048;2023-09-07T12:12:51;4.60;;;3.93;;
6785;SDS011;3430;51.192;6.048;2023-09-07T12:15:17;7.20;;;4.83;;
6785;SDS011;3430;51.192;6.048;2023-09-07T12:17:42;4.83;;;4.33;;
6785;SDS011;3430;51.192;6.048;2023-09-07T12:20:08;5.00;;;4.13;;
6785;SDS011;3430;51.192;6.048;2023-09-07T12:22:38;6.37;;;5.70;;
6785;SDS011;3430;51.192;6.048;2023-09-07T12:25:04;6.10;;;4.93;;
6785;SDS011;3430;51.192;6.048;2023-09-07T12:27:31;6.53;;;5.27;;
6785;SDS011;3430;51.192;6.048;2023-09-07T12:29:57;5.93;;;4.90;;
6785;SDS011;3430;51.192;6.048;2023-09-07T12:32:22;8.90;;;5.87;;
6785;SDS011;3430;51.192;6.048;2023-09-07T12:34:47;7.60;;;5.50;;
6785;SDS011;3430;51.192;6.048;2023-09-07T12:37:18;7.83;;;6.57;;
6785;SDS011;3430;51.192;6.048;2023-09-07T12:39:44;5.87;;;5.27;;
6785;SDS011;3430;51.192;6.048;2023-09-07T12:42:09;6.07;;;4.97;;
6785;SDS011;3430;51.192;6.048;2023-09-07T12:44:34;6.43;;;5.20;;
6785;SDS011;3430;51.192;6.048;2023-09-07T12:47:00;7.93;;;7.13;;
6785;SDS011;3430;51.192;6.048;2023-09-07T12:49:25;7.67;;;6.97;;
6785;SDS011;3430;51.192;6.048;2023-09-07T12:51:50;7.93;;;7.10;;
6785;SDS011;3430;51.192;6.048;2023-09-07T12:54:15;7.80;;;7.00;;
6785;SDS011;3430;51.192;6.048;2023-09-07T12:56:41;6.27;;;5.53;;
6785;SDS011;3430;51.192;6.048;2023-09-07T12:59:06;9.40;;;7.03;;
6785;SDS011;3430;51.192;6.048;2023-09-07T13:01:33;7.57;;;6.53;;
6785;SDS011;3430;51.192;6.048;2023-09-07T13:03:59;9.60;;;7.43;;
6785;SDS011;3430;51.192;6.048;2023-09-07T13:06:25;6.00;;;5.40;;
6785;SDS011;3430;51.192;6.048;2023-09-07T13:08:50;8.03;;;7.23;;
6785;SDS011;3430;51.192;6.048;2023-09-07T13:11:16;8.07;;;7.27;;
6785;SDS011;3430;51.192;6.048;2023-09-07T13:13:41;6.53;;;5.50;;
6785;SDS011;3430;51.192;6.048;2023-09-07T13:16:06;9.27;;;7.17;;
6785;SDS011;3430;51.192;6.048;2023-09-07T13:18:31;8.37;;;7.47;;
6785;SDS011;3430;51.192;6.048;2023-09-07T13:20:57;9.47;;;7.43;;
6785;SDS011;3430;51.192;6.048;2023-09-07T13:23:28;8.30;;;7.20;;
6785;SDS011;3430;51.192;6.048;2023-09-07T13:25:54;9.10;;;7.43;;
6785;SDS011;3430;51.192;6.048;2023-09-07T13:28:23;8.17;;;7.27;;
6785;SDS011;3430;51.192;6.048;2023-09-07T13:30:49;7.37;;;6.63;;
6785;SDS011;3430;51.192;6.048;2023-09-07T13:33:15;9.80;;;7.50;;
6785;SDS011;3430;51.192;6.048;2023-09-07T13:35:40;6.60;;;5.17;;
6785;SDS011;3430;51.192;6.048;2023-09-07T13:38:05;9.43;;;7.60;;
6785;SDS011;3430;51.192;6.048;2023-09-07T13:40:34;7.73;;;6.73;;
6785;SDS011;3430;51.192;6.048;2023-09-07T13:42:59;6.93;;;6.20;;
6785;SDS011;3430;51.192;6.048;2023-09-07T13:45:24;5.97;;;5.37;;
6785;SDS011;3430;51.192;6.048;2023-09-07T13:47:50;6.67;;;6.03;;
6785;SDS011;3430;51.192;6.048;2023-09-07T13:50:15;7.63;;;6.87;;
6785;SDS011;3430;51.192;6.048;2023-09-07T13:52:41;4.97;;;4.47;;
6785;SDS011;3430;51.192;6.048;2023-09-07T13:55:06;7.83;;;7.13;;
6785;SDS011;3430;51.192;6.048;2023-09-07T13:57:32;8.50;;;7.60;;
6785;SDS011;3430;51.192;6.048;2023-09-07T13:59:57;8.23;;;7.37;;
6785;SDS011;3430;51.192;6.048;2023-09-07T14:02:23;9.43;;;7.73;;
6785;SDS011;3430;51.192;6.048;2023-09-07T14:04:48;8.03;;;6.77;;
6785;SDS011;3430;51.192;6.048;2023-09-07T14:07:14;7.77;;;7.00;;
6785;SDS011;3430;51.192;6.048;2023-09-07T14:09:39;7.97;;;7.27;;
6785;SDS011;3430;51.192;6.048;2023-09-07T14:12:05;7.90;;;7.00;;
6785;SDS011;3430;51.192;6.048;2023-09-07T14:14:30;8.47;;;7.57;;
6785;SDS011;3430;51.192;6.048;2023-09-07T14:16:56;8.13;;;6.57;;
6785;SDS011;3430;51.192;6.048;2023-09-07T14:19:23;8.30;;;7.20;;
6785;SDS011;3430;51.192;6.048;2023-09-07T14:21:48;7.93;;;7.13;;
6785;SDS011;3430;51.192;6.048;2023-09-07T14:24:13;7.80;;;7.00;;
6785;SDS011;3430;51.192;6.048;2023-09-07T14:26:39;7.33;;;5.97;;
6785;SDS011;3430;51.192;6.048;2023-09-07T14:29:04;8.80;;;6.77;;
6785;SDS011;3430;51.192;6.048;2023-09-07T14:31:30;7.63;;;6.37;;
6785;SDS011;3430;51.192;6.048;2023-09-07T14:33:55;9.67;;;7.63;;
6785;SDS011;3430;51.192;6.048;2023-09-07T14:36:20;8.50;;;7.60;;
6785;SDS011;3430;51.192;6.048;2023-09-07T14:38:46;7.87;;;7.00;;
6785;SDS011;3430;51.192;6.048;2023-09-07T14:41:11;6.57;;;5.67;;
6785;SDS011;3430;51.192;6.048;2023-09-07T14:43:43;8.50;;;7.37;;
6785;SDS011;3430;51.192;6.048;2023-09-07T14:46:08;7.80;;;6.77;;
6785;SDS011;3430;51.192;6.048;2023-09-07T14:48:33;7.57;;;6.80;;
6785;SDS011;3430;51.192;6.048;2023-09-07T14:50:59;8.30;;;7.33;;
6785;SDS011;3430;51.192;6.048;2023-09-07T14:53:24;7.17;;;6.30;;
6785;SDS011;3430;51.192;6.048;2023-09-07T14:55:49;6.43;;;5.80;;
6785;SDS011;3430;51.192;6.048;2023-09-07T14:58:15;6.40;;;5.43;;
6785;SDS011;3430;51.192;6.048;2023-09-07T15:00:40;6.43;;;5.70;;
6785;SDS011;3430;51.192;6.048;2023-09-07T15:03:05;7.80;;;6.87;;
6785;SDS011;3430;51.192;6.048;2023-09-07T15:05:30;8.73;;;7.83;;
6785;SDS011;3430;51.192;6.048;2023-09-07T15:07:56;6.50;;;5.90;;
6785;SDS011;3430;51.192;6.048;2023-09-07T15:10:21;5.97;;;5.13;;
6785;SDS011;3430;51.192;6.048;2023-09-07T15:12:46;5.67;;;5.07;;
6785;SDS011;3430;51.192;6.048;2023-09-07T15:15:12;8.30;;;7.20;;
6785;SDS011;3430;51.192;6.048;2023-09-07T15:17:38;10.13;;;8.53;;
6785;SDS011;3430;51.192;6.048;2023-09-07T15:20:04;9.63;;;8.23;;
6785;SDS011;3430;51.192;6.048;2023-09-07T15:22:29;9.77;;;8.13;;